Address 0x0a64c6fe3b8152f343c6de38bc77794a9af2c669

 
 
Txn Hash Method
Block
From
To
Value [Txn Fee]
0x9d00934a9609020013c45fd668da242e9f2e51071f769ce5b58b0f93eb659f320x1de9c881112536242021-09-26 14:51:2621 mins ago0x0a64c6fe3b8152f343c6de38bc77794a9af2c669OUT 0xbbe88aa602241e48f247b725b49f36e78eb325040 BNB0.001239095
0x197365a3a71849684921dd1f9ebaffed3c0f207a7644720d4045e8603f6c9ff70x1de9c881112535852021-09-26 14:49:2923 mins ago0x0a64c6fe3b8152f343c6de38bc77794a9af2c669OUT 0xbbe88aa602241e48f247b725b49f36e78eb325040 BNB0.000477819444
0x82ea28c22c7c774ffccaa1990ca55f0114a33ca97d625227f0c03cf43cb5309b0x1de9c881112535532021-09-26 14:47:5324 mins ago0x0a64c6fe3b8152f343c6de38bc77794a9af2c669OUT 0x2138c55179d2b8a809b2554f7236b05ac5b293d30 BNB0.0001879911
0x3dd925d14739c8175dbf3ee317eac744a46d69531e35abaec049ccf88473782b0x1de9c881112531732021-09-26 14:28:3644 mins ago0x0a64c6fe3b8152f343c6de38bc77794a9af2c669OUT 0x3b616a0b47415a0993b288622caa5d880bb92e820 BNB0.001260441
0xc2f510443306cbbeba8ff8ed94e97c88accb3dd7a5aa8f26ddf5bf7bee4521140x1de9c881112529272021-09-26 14:16:1256 mins ago0x0a64c6fe3b8152f343c6de38bc77794a9af2c669OUT 0x2138c55179d2b8a809b2554f7236b05ac5b293d30 BNB0.000397611
0x21cf33458370c3eea8ff6e7fdf3ee4c04e0430d3f49d758eda92f97fec17156eTransfer112529042021-09-26 14:15:0357 mins ago0x0a64c6fe3b8152f343c6de38bc77794a9af2c669SELF0x0a64c6fe3b8152f343c6de38bc77794a9af2c6690 BNB0.00011655
0x180f929efccc87f6b0b4ed96a20e8e1390413b98763ada7f3acf5dc87b1cbc0d0x1de9c881112528602021-09-26 14:12:5159 mins ago0x0a64c6fe3b8152f343c6de38bc77794a9af2c669OUT 0x7918fe9f8411c764681ff34cec19e372ce1de6ed0 BNB0.0002213
0x0a069dc6619912168124b0c3c224e937147b9c77d2cf8d93fabcb8be162287870x1de9c881112527672021-09-26 14:08:051 hr 4 mins ago0x0a64c6fe3b8152f343c6de38bc77794a9af2c669OUT 0xbbe88aa602241e48f247b725b49f36e78eb325040 BNB0.00021221
0x95856fc555ad80e2a856063bdf7313dbfec4b11371efaf927bd611a5828729380x1de9c881112527522021-09-26 14:07:201 hr 5 mins ago0x0a64c6fe3b8152f343c6de38bc77794a9af2c669OUT 0x2138c55179d2b8a809b2554f7236b05ac5b293d30 BNB0.000220955
0x43f0cb4d2e5f08ceff159feb14c5b7fa0dd9a69007214055f09c9951a2633272Transfer112527162021-09-26 14:05:321 hr 7 mins ago0xe5a8218f1319980f3c6855d48bc0f7d2dcc9d573 IN 0x0a64c6fe3b8152f343c6de38bc77794a9af2c6690.088505825707653 BNB0.000105
0x992b08dbd4b381a6ac6fd97be51f85356a084554425e8c8a9efa65b6f9174a540x1de9c881112527142021-09-26 14:05:261 hr 7 mins ago0x0a64c6fe3b8152f343c6de38bc77794a9af2c669OUT 0x3b616a0b47415a0993b288622caa5d880bb92e820 BNB0.0016431612
0x1c53680cb23ea26c5feb9b525c44b20a14916179d11e9f2afcfad518d137d9ad0x1de9c881112526882021-09-26 14:04:081 hr 8 mins ago0x0a64c6fe3b8152f343c6de38bc77794a9af2c669OUT 0x3b616a0b47415a0993b288622caa5d880bb92e820 BNB0.00022142
0x3ac9320055d1e4cf4b8c4a6d026f961d217bd156ae4d88e958b4962c66978e390x1de9c881112526632021-09-26 14:02:531 hr 9 mins ago0x0a64c6fe3b8152f343c6de38bc77794a9af2c669OUT 0xbbe88aa602241e48f247b725b49f36e78eb325040 BNB0.000220855
0x55cb97884fc31fa278b3bd106382cc0e37359ca307c4e19bf6082d0653846b7e0x1de9c881112525052021-09-26 13:54:591 hr 17 mins ago0x0a64c6fe3b8152f343c6de38bc77794a9af2c669OUT 0xbbe88aa602241e48f247b725b49f36e78eb325040 BNB0.000265548
0x8fc3b911f37b34184cc520e29d25c8e9b3e5625124206e142ed8cd63739cc6a00x1de9c881112520902021-09-26 13:34:141 hr 38 mins ago0x0a64c6fe3b8152f343c6de38bc77794a9af2c669OUT 0xbbe88aa602241e48f247b725b49f36e78eb325040 BNB0.000203445
0x4572495f75ac4d3729c01205ddd5044f8cfd9749d974281c30225d02b6dc2bdc0x1de9c881112517302021-09-26 13:16:141 hr 56 mins ago0x0a64c6fe3b8152f343c6de38bc77794a9af2c669OUT 0x3b616a0b47415a0993b288622caa5d880bb92e820 BNB0.000243978
0x63178d6caff23412072c035781563a3fb6b06eb894f8a2ca1bbc8f229a46b0380x1de9c881112511792021-09-26 12:48:252 hrs 24 mins ago0x0a64c6fe3b8152f343c6de38bc77794a9af2c669OUT 0x7918fe9f8411c764681ff34cec19e372ce1de6ed0 BNB0.000221305
0xd08d32f395dbff57416891ae3acbc74e9b911ea52a045b9c25a1f5024715f2a50x1de9c881112502682021-09-26 12:02:393 hrs 10 mins ago0x0a64c6fe3b8152f343c6de38bc77794a9af2c669OUT 0x3b616a0b47415a0993b288622caa5d880bb92e820 BNB0.000203195
0x646a4c58f8474d85f888dcc10960e485f3eb91c7410da60372edb10343fcfbf50x1de9c881112501292021-09-26 11:55:283 hrs 17 mins ago0x0a64c6fe3b8152f343c6de38bc77794a9af2c669OUT 0x7918fe9f8411c764681ff34cec19e372ce1de6ed0 BNB0.00022119
0x03dcaf57b4123ef2f8ce66638d1ab857782410d14a6ad9fcb13330340631fee30x1de9c881112501152021-09-26 11:54:383 hrs 18 mins ago0x0a64c6fe3b8152f343c6de38bc77794a9af2c669OUT 0x2138c55179d2b8a809b2554f7236b05ac5b293d30 BNB0.001298915
0x1456f8bd16ba5241b26bfd20bcb8e85c2796dc015842ddad3fa745d5934c5d730x1de9c881112497892021-09-26 11:38:153 hrs 34 mins ago0x0a64c6fe3b8152f343c6de38bc77794a9af2c669OUT 0xbbe88aa602241e48f247b725b49f36e78eb325040 BNB0.001304705618
0x07efd0598b829acb244d71a03567ec5b49c27c6a08ed5178db898bbcd930bf560x1de9c881112490552021-09-26 11:00:454 hrs 12 mins ago0x0a64c6fe3b8152f343c6de38bc77794a9af2c669OUT 0x7918fe9f8411c764681ff34cec19e372ce1de6ed0 BNB0.000227088658
0x06d0e7c80fe719838b7fabf3b40f27587ad98453216e3ec674d3f0b06d8e99990x1de9c881112482762021-09-26 10:21:444 hrs 51 mins ago0x0a64c6fe3b8152f343c6de38bc77794a9af2c669OUT 0x2138c55179d2b8a809b2554f7236b05ac5b293d30 BNB0.000265146
0x49a3c2a532a3c678bdc3e9904f7a3d72e5d492549d4d0af34a5b68cdf4384a060x1de9c881112481732021-09-26 10:16:354 hrs 56 mins ago0x0a64c6fe3b8152f343c6de38bc77794a9af2c669OUT 0x2138c55179d2b8a809b2554f7236b05ac5b293d30 BNB0.000527553
0x01afdedce07f62482d4ea97042963e1c5cdb2044d520d189fee67b83187543a50x1de9c881112476172021-09-26 9:48:195 hrs 24 mins ago0x0a64c6fe3b8152f343c6de38bc77794a9af2c669OUT 0x3b616a0b47415a0993b288622caa5d880bb92e820 BNB0.0013397292
[ Download CSV Export 
Parent Txn Hash Block From To Value
Loading

Contract Name:
0 BNB

Compiler Version
0

Optimization Enabled:
0 BNB

Other Settings:
-NA-
Block Transaction Gas Used Reward
Age Block Fee Address BC Fee Address Voting Power Jailed Incoming
Block Uncle Number Difficulty Gas Used Reward
Loading
Loading
Make sure to use the "Vote Down" button for any spammy posts, and the "Vote Up" for interesting conversations.